Terminal Aerodrome Forecast
Issued by NWS

Home | Current Version | Previous Version | Text Only | Print | Product List | Glossary On
Versions: 1 2 3 4 5 6 7 8 9 10 11 12 13 14
000
FTUS45 KTWC 261733
TAFOLS
TAF
KOLS 261733Z 2618/2718 32006KT P6SM FEW060 SCT130 BKN200
     FM262000 30010KT P6SM VCSH SCT070 SCT200
     FM270200 20006KT P6SM SCT070 BKN200
     FM270900 VRB05KT P6SM BKN200=

USA.gov is the U.S. government's official web portal to all federal, state and local government web resources and services.